createdAt,value
2023-03-01T00:03:48.846Z,59.6
2023-03-01T00:08:48.770Z,59.6
2023-03-01T00:13:48.784Z,59.7
2023-03-01T00:18:48.826Z,59.9
2023-03-01T00:23:48.775Z,60.1
2023-03-01T00:28:48.798Z,60.4
2023-03-01T00:33:48.863Z,60.5
2023-03-01T00:38:48.927Z,60.7
2023-03-01T00:43:48.875Z,60.6
2023-03-01T00:48:48.891Z,61
2023-03-01T00:53:48.878Z,61.4
2023-03-01T00:58:48.906Z,61.5
2023-03-01T01:03:48.862Z,61.7
2023-03-01T01:08:48.902Z,62.1
2023-03-01T01:13:48.895Z,62.6
2023-03-01T01:18:49.240Z,62.6
2023-03-01T01:23:48.876Z,62.9
2023-03-01T01:28:48.893Z,63.1
2023-03-01T01:33:48.897Z,63.7
2023-03-01T01:38:48.881Z,63.9
2023-03-01T01:43:48.892Z,64.4
2023-03-01T01:48:48.885Z,64.8
2023-03-01T01:53:48.902Z,64.7
2023-03-01T01:58:48.921Z,65.1
2023-03-01T02:03:48.995Z,65.2
2023-03-01T02:08:48.878Z,65.4
2023-03-01T02:13:48.893Z,65.7
2023-03-01T02:18:48.918Z,66
2023-03-01T02:23:49.022Z,66.3
2023-03-01T02:28:48.907Z,66.2
2023-03-01T02:33:48.957Z,66.7
2023-03-01T02:38:49.052Z,66.3
2023-03-01T02:43:48.929Z,66
2023-03-01T02:48:48.924Z,65.9
2023-03-01T02:53:48.970Z,66
2023-03-01T02:58:48.948Z,66.2
2023-03-01T03:03:48.994Z,66.2
2023-03-01T03:08:48.931Z,65.7
2023-03-01T03:13:49.181Z,65.9
2023-03-01T03:18:48.919Z,66
2023-03-01T03:23:48.938Z,66.2
2023-03-01T03:28:49.050Z,66.6
2023-03-01T03:33:48.912Z,67
2023-03-01T03:38:48.898Z,66.9
2023-03-01T03:43:48.884Z,66.6
2023-03-01T03:48:48.909Z,66.4
2023-03-01T03:53:48.913Z,66.5
2023-03-01T03:58:48.889Z,67
2023-03-01T04:03:48.887Z,67.4
2023-03-01T04:08:48.895Z,68.2
2023-03-01T04:13:48.915Z,68.1
2023-03-01T04:18:48.909Z,67.7
2023-03-01T04:23:48.904Z,67.5
2023-03-01T04:28:48.887Z,67.7
2023-03-01T04:33:48.960Z,67.5
2023-03-01T04:38:48.899Z,67.6
2023-03-01T04:43:48.925Z,67.5
2023-03-01T04:48:48.990Z,67.6
2023-03-01T04:53:48.969Z,67.7
2023-03-01T04:58:48.969Z,67.9
2023-03-01T05:03:48.969Z,68.2
2023-03-01T05:08:49.001Z,68.3
2023-03-01T05:13:49.000Z,68.4
2023-03-01T05:18:49.020Z,68.7
2023-03-01T05:23:48.997Z,68.8
2023-03-01T05:28:48.950Z,68.7
2023-03-01T05:33:48.990Z,68.3
2023-03-01T05:38:48.981Z,69.2
2023-03-01T05:43:48.977Z,69.3
2023-03-01T05:48:48.968Z,70
2023-03-01T05:53:48.986Z,69.8
2023-03-01T05:58:49.092Z,69.4
2023-03-01T06:03:49.088Z,69.8
2023-03-01T06:08:48.996Z,70.3
2023-03-01T06:13:48.998Z,71.2
2023-03-01T06:18:49.002Z,71.4
2023-03-01T06:23:48.978Z,71.3
2023-03-01T06:28:49.008Z,71.8
2023-03-01T06:33:49.001Z,71.8
2023-03-01T06:38:48.990Z,72.6
2023-03-01T06:43:48.992Z,73.2
2023-03-01T06:48:48.976Z,74.2
2023-03-01T06:53:49.005Z,74.8
2023-03-01T06:58:48.976Z,75.2
2023-03-01T07:03:48.961Z,75
2023-03-01T07:08:48.964Z,75.9
2023-03-01T07:13:48.997Z,76.4
2023-03-01T07:18:48.996Z,76.7
2023-03-01T07:23:48.981Z,77.5
2023-03-01T07:28:48.978Z,78.6
2023-03-01T07:33:49.521Z,79.5
2023-03-01T07:38:48.981Z,78.4
2023-03-01T07:43:48.979Z,77.5
2023-03-01T07:48:48.991Z,77.8
2023-03-01T07:53:49.071Z,77.5
2023-03-01T07:58:50.634Z,76.5
2023-03-01T08:03:49.008Z,76.4
2023-03-01T08:08:48.991Z,75.3
2023-03-01T08:13:51.326Z,74.2
2023-03-01T08:18:49.017Z,73
2023-03-01T08:23:49.171Z,72.8
2023-03-01T08:28:48.994Z,72.6
2023-03-01T08:33:49.018Z,72.6
2023-03-01T08:38:48.996Z,72.6
2023-03-01T08:43:48.995Z,72.5
2023-03-01T08:48:49.008Z,72.5
2023-03-01T08:53:49.019Z,72.9
2023-03-01T08:58:49.012Z,73
2023-03-01T09:03:49.122Z,73
2023-03-01T09:08:49.010Z,73
2023-03-01T09:13:49.016Z,72.8
2023-03-01T09:18:49.025Z,72.9
2023-03-01T09:23:48.991Z,72.1
2023-03-01T09:28:48.999Z,71.6
2023-03-01T09:33:49.028Z,70.2
2023-03-01T09:38:49.019Z,69.9
2023-03-01T09:43:49.008Z,68.9
2023-03-01T09:48:49.035Z,69
2023-03-01T09:53:49.039Z,68.6
2023-03-01T09:58:49.022Z,67.7
2023-03-01T10:03:49.026Z,68
2023-03-01T10:08:49.192Z,68.1
2023-03-01T10:13:49.038Z,65.3
2023-03-01T10:18:49.025Z,66.6
2023-03-01T10:23:48.997Z,66.2
2023-03-01T10:28:49.072Z,64.9
2023-03-01T10:33:49.151Z,64.4
2023-03-01T10:38:49.041Z,63.1
2023-03-01T10:43:49.028Z,63
2023-03-01T10:48:49.373Z,62.3
2023-03-01T10:53:49.037Z,58.6
2023-03-01T10:58:49.028Z,59
2023-03-01T11:03:49.019Z,57.6
2023-03-01T11:08:49.004Z,58.4
2023-03-01T11:13:49.075Z,58
2023-03-01T11:18:49.067Z,57.5
2023-03-01T11:23:49.021Z,56
2023-03-01T11:28:49.014Z,54.5
2023-03-01T11:33:49.036Z,52.9
2023-03-01T11:38:49.093Z,50.4
2023-03-01T11:43:49.010Z,50
2023-03-01T11:48:50.297Z,50
2023-03-01T11:53:49.044Z,49.2
2023-03-01T11:58:49.072Z,49.7
2023-03-01T12:03:49.041Z,49.3
2023-03-01T12:08:49.259Z,48.9
2023-03-01T12:13:49.045Z,48.4
2023-03-01T12:18:49.225Z,47.3
2023-03-01T12:23:49.094Z,46.4
2023-03-01T12:28:49.069Z,44.3
2023-03-01T12:33:49.098Z,45.4
2023-03-01T12:38:49.055Z,44.1
2023-03-01T12:43:49.052Z,42.4
2023-03-01T12:48:49.056Z,41
2023-03-01T12:53:49.080Z,41.6
2023-03-01T12:58:50.871Z,41.3
2023-03-01T13:03:49.059Z,39.2
2023-03-01T13:08:49.044Z,38.8
2023-03-01T13:13:49.104Z,38.5
2023-03-01T13:18:49.081Z,37.9
2023-03-01T13:23:49.040Z,38.4
2023-03-01T13:28:49.079Z,37.6
2023-03-01T13:33:49.092Z,36.4
2023-03-01T13:38:49.040Z,36.2
2023-03-01T13:43:49.049Z,36.4
2023-03-01T13:48:49.069Z,36.4
2023-03-01T13:53:49.116Z,36.2
2023-03-01T13:58:49.206Z,36
2023-03-01T14:03:49.072Z,35.7
2023-03-01T14:08:49.429Z,35
2023-03-01T14:13:49.056Z,34.3
2023-03-01T14:18:49.151Z,34.1
2023-03-01T14:23:49.045Z,34.1
2023-03-01T14:28:49.045Z,33.4
2023-03-01T14:33:49.065Z,33.5
2023-03-01T14:38:49.042Z,32.8
2023-03-01T14:43:49.061Z,32.9
2023-03-01T14:48:49.118Z,32.4
2023-03-01T14:53:51.096Z,32
2023-03-01T14:58:49.085Z,32.4
2023-03-01T15:03:49.044Z,33
2023-03-01T15:08:49.105Z,33
2023-03-01T15:13:49.088Z,33.3
2023-03-01T15:18:49.107Z,34
2023-03-01T15:23:49.068Z,35.6
2023-03-01T15:28:49.080Z,36
2023-03-01T15:33:49.131Z,36.6
2023-03-01T15:38:49.091Z,37.2
2023-03-01T15:43:49.080Z,37.2
2023-03-01T15:48:49.087Z,37.7
2023-03-01T15:53:54.167Z,38.2
2023-03-01T15:58:49.100Z,38.7
2023-03-01T16:03:49.104Z,39.1
2023-03-01T16:08:50.117Z,39.8
2023-03-01T16:13:49.175Z,40.3
2023-03-01T16:18:49.227Z,41.2
2023-03-01T16:23:49.125Z,41.3
2023-03-01T16:28:49.122Z,41.3
2023-03-01T16:33:49.254Z,41.7
2023-03-01T16:38:49.174Z,42.2
2023-03-01T16:43:49.220Z,42.4
2023-03-01T16:48:49.502Z,42.9
2023-03-01T16:53:49.145Z,43.9
2023-03-01T16:58:49.153Z,44.4
2023-03-01T17:03:49.112Z,44.9
2023-03-01T17:08:49.103Z,45.3
2023-03-01T17:13:49.248Z,45.4
2023-03-01T17:18:49.147Z,45.9
2023-03-01T17:23:49.099Z,46.1
2023-03-01T17:28:49.144Z,47.1
2023-03-01T17:33:49.201Z,47.3
2023-03-01T17:38:49.143Z,48.6
2023-03-01T17:43:49.174Z,49.1
2023-03-01T17:48:49.152Z,49.1
2023-03-01T17:53:49.161Z,49.3
2023-03-01T17:58:49.137Z,49.5
2023-03-01T18:03:49.137Z,50.6
2023-03-01T18:08:49.155Z,50.3
2023-03-01T18:13:49.339Z,50.5
2023-03-01T18:18:49.398Z,50.9
2023-03-01T18:23:49.130Z,51.4
2023-03-01T18:28:49.178Z,51.5
2023-03-01T18:33:49.186Z,52.1
2023-03-01T18:38:49.234Z,52.5
2023-03-01T18:43:49.155Z,52.6
2023-03-01T18:48:49.206Z,52.8
2023-03-01T18:53:49.199Z,53.1
2023-03-01T18:58:49.169Z,53.5
2023-03-01T19:03:49.164Z,53.9
2023-03-01T19:08:49.250Z,54.2
2023-03-01T19:13:49.436Z,54.6
2023-03-01T19:18:49.187Z,54.7
2023-03-01T19:23:49.184Z,55
2023-03-01T19:28:49.160Z,55.1
2023-03-01T19:33:49.356Z,55.6
2023-03-01T19:38:49.180Z,55.8
2023-03-01T19:43:49.174Z,56
2023-03-01T19:48:50.157Z,56.2
2023-03-01T19:53:54.788Z,56.6
2023-03-01T19:58:49.162Z,56.5
2023-03-01T20:03:49.152Z,56.8
2023-03-01T20:08:49.159Z,57
2023-03-01T20:13:49.174Z,57.3
2023-03-01T20:18:49.188Z,57.5
2023-03-01T20:23:49.147Z,57.8
2023-03-01T20:28:49.392Z,58
2023-03-01T20:33:50.401Z,58.3
2023-03-01T20:38:49.396Z,58.5
2023-03-01T20:43:49.195Z,58.8
2023-03-01T20:48:49.233Z,59
2023-03-01T20:53:49.302Z,59.2
2023-03-01T20:58:49.251Z,59.6
2023-03-01T21:03:49.600Z,59.6
2023-03-01T21:08:49.219Z,59.8
2023-03-01T21:13:49.230Z,59.9
2023-03-01T21:18:49.250Z,60.1
2023-03-01T21:23:49.231Z,60.1
2023-03-01T21:28:49.271Z,60.6
2023-03-01T21:33:49.253Z,60.8
2023-03-01T21:38:49.284Z,61.1
2023-03-01T21:43:49.260Z,61.4
2023-03-01T21:48:49.233Z,61.6
2023-03-01T21:53:49.277Z,61.5
2023-03-01T21:58:49.260Z,61.7
2023-03-01T22:03:49.224Z,62
2023-03-01T22:08:49.290Z,62.1
2023-03-01T22:13:49.382Z,62.1
2023-03-01T22:18:49.291Z,62.3
2023-03-01T22:23:49.281Z,62.5
2023-03-01T22:28:49.261Z,62.8
2023-03-01T22:33:49.338Z,62.9
2023-03-01T22:38:49.273Z,63.4
2023-03-01T22:43:49.310Z,63.5
2023-03-01T22:48:49.286Z,63.9
2023-03-01T22:53:49.284Z,64.1
2023-03-01T22:58:49.267Z,64.4
2023-03-01T23:03:49.381Z,64.5
2023-03-01T23:08:49.601Z,64.9
2023-03-01T23:13:49.295Z,65.2
2023-03-01T23:18:49.278Z,65
2023-03-01T23:23:49.272Z,65.2
2023-03-01T23:28:49.272Z,65.4
2023-03-01T23:33:49.305Z,65.5
2023-03-01T23:38:53.266Z,66.7
2023-03-01T23:43:50.327Z,66.9
2023-03-01T23:48:49.525Z,67.3
2023-03-01T23:53:49.281Z,68.8
2023-03-01T23:58:49.296Z,69.1
